Time;durP1;ratioP1;P1;durP2;ratioP2;P2;SDS_P1;SDS_P2;PMS_P1;PMS_P2;Temp;Humidity;BMP_temperature;BMP_pressure;BME280_temperature;BME280_humidity;BME280_pressure;Samples;Min_cycle;Max_cycle;Signal;HPM_P1;HPM_P2
2023/07/11 00:00:18;;;;;;;6.60;4.25;;;30.10;82.70;;;;;;5032981;28;20128;-89
2023/07/11 00:02:45;;;;;;;6.63;4.90;;;30.10;82.90;;;;;;5028206;28;20021;-89
2023/07/11 00:05:13;;;;;;;6.78;4.35;;;30.10;82.90;;;;;;5013589;28;20029;-88
2023/07/11 00:07:40;;;;;;;5.35;4.13;;;30.10;83.10;;;;;;5031502;28;20108;-89
2023/07/11 00:10:08;;;;;;;6.70;4.63;;;30.10;83.60;;;;;;5016743;28;20041;-89
2023/07/11 00:12:33;;;;;;;6.80;4.25;;;30.10;83.90;;;;;;5028008;28;20078;-90
2023/07/11 00:14:59;;;;;;;10.98;4.50;;;30.10;83.70;;;;;;5025972;28;20060;-89
2023/07/11 00:17:25;;;;;;;8.13;4.88;;;30.10;83.60;;;;;;5012906;28;20037;-88
2023/07/11 00:19:56;;;;;;;7.40;5.93;;;30.00;83.70;;;;;;5013493;28;20478;-88
2023/07/11 00:22:23;;;;;;;9.10;5.30;;;30.00;83.80;;;;;;5013522;28;20552;-89
2023/07/11 00:24:50;;;;;;;7.18;5.93;;;29.90;83.70;;;;;;5029922;28;20029;-89
2023/07/11 00:27:17;;;;;;;6.13;5.53;;;29.90;83.90;;;;;;5033070;28;20104;-89
2023/07/11 00:29:43;;;;;;;6.18;5.00;;;29.90;84.30;;;;;;5020202;28;20018;-89
2023/07/11 00:32:09;;;;;;;6.43;5.03;;;29.80;84.50;;;;;;5024561;28;20045;-90
2023/07/11 00:34:35;;;;;;;6.65;5.35;;;29.80;84.80;;;;;;5013818;28;20022;-89
2023/07/11 00:37:01;;;;;;;6.22;4.90;;;29.90;85.00;;;;;;5014377;28;20378;-90
2023/07/11 00:39:29;;;;;;;5.78;4.70;;;29.90;84.80;;;;;;5013980;28;20026;-90
2023/07/11 00:41:55;;;;;;;6.15;4.45;;;29.90;84.60;;;;;;5013441;28;20045;-89
2023/07/11 00:44:21;;;;;;;6.50;4.38;;;29.80;84.60;;;;;;5013546;28;20049;-90
2023/07/11 00:46:47;;;;;;;4.63;3.75;;;29.90;85.00;;;;;;5013812;28;20076;-90
2023/07/11 00:49:17;;;;;;;8.13;4.28;;;29.90;85.00;;;;;;5013719;28;20029;-87
2023/07/11 00:51:50;;;;;;;6.13;4.50;;;29.90;84.90;;;;;;5031742;28;20476;-87
2023/07/11 00:54:19;;;;;;;5.07;4.25;;;29.90;85.00;;;;;;5013614;28;20030;-87
2023/07/11 00:56:46;;;;;;;4.70;4.20;;;29.90;85.10;;;;;;5013469;28;20034;-88
2023/07/11 00:59:15;;;;;;;8.07;4.40;;;29.90;85.30;;;;;;5014114;28;20470;-89
2023/07/11 01:01:44;;;;;;;6.18;4.13;;;29.90;85.00;;;;;;5020737;28;20058;-88
2023/07/11 01:04:10;;;;;;;7.65;4.38;;;29.80;84.80;;;;;;5028725;28;20022;-88
2023/07/11 01:06:35;;;;;;;6.22;3.80;;;29.80;85.00;;;;;;5012461;28;20439;-88
2023/07/11 01:09:04;;;;;;;5.68;4.32;;;29.80;85.70;;;;;;5013369;28;20022;-87
2023/07/11 01:11:48;;;;;;;5.93;4.25;;;29.80;85.10;;;;;;5012648;28;20046;-87
2023/07/11 01:14:13;;;;;;;5.43;4.18;;;29.80;85.30;;;;;;5013037;28;20089;-86
2023/07/11 01:16:43;;;;;;;6.20;4.38;;;29.70;85.20;;;;;;5033047;28;20029;-86
2023/07/11 01:19:09;;;;;;;6.53;4.90;;;29.70;85.20;;;;;;5032996;28;20075;-86
2023/07/11 01:21:36;;;;;;;5.57;4.85;;;29.70;85.30;;;;;;5032879;28;20060;-86
2023/07/11 01:24:02;;;;;;;6.57;5.03;;;29.70;85.30;;;;;;5017438;28;20466;-86
2023/07/11 01:26:29;;;;;;;5.20;4.20;;;29.70;85.40;;;;;;5016338;28;20373;-87
2023/07/11 01:28:55;;;;;;;5.68;4.15;;;29.70;85.80;;;;;;5014253;28;20022;-86
2023/07/11 01:31:21;;;;;;;6.70;4.80;;;29.70;86.00;;;;;;5015895;28;20030;-87
2023/07/11 01:33:47;;;;;;;4.63;4.05;;;29.60;86.00;;;;;;4998685;28;20037;-87
2023/07/11 01:36:13;;;;;;;5.00;4.32;;;29.60;86.20;;;;;;5020136;28;20105;-87
2023/07/11 01:38:39;;;;;;;5.88;5.07;;;29.60;86.40;;;;;;5016259;28;20382;-87
2023/07/11 01:41:05;;;;;;;7.28;5.00;;;29.60;86.60;;;;;;5016462;28;20034;-86
2023/07/11 01:43:31;;;;;;;6.88;4.90;;;29.60;86.60;;;;;;4998581;28;20109;-86
2023/07/11 01:45:56;;;;;;;4.90;4.38;;;29.60;86.80;;;;;;5015977;28;20041;-88
2023/07/11 01:48:22;;;;;;;5.78;4.45;;;29.50;86.70;;;;;;5015903;28;20022;-88
2023/07/11 01:50:48;;;;;;;4.90;4.40;;;29.50;86.80;;;;;;5015929;28;20092;-87
2023/07/11 01:53:13;;;;;;;5.28;4.78;;;29.50;87.00;;;;;;5020059;28;20391;-87
2023/07/11 01:55:39;;;;;;;6.90;4.18;;;29.50;87.10;;;;;;5029135;28;20022;-85
2023/07/11 01:58:05;;;;;;;5.78;5.18;;;29.50;87.40;;;;;;5020130;28;20026;-85
2023/07/11 02:00:31;;;;;;;8.25;5.00;;;29.50;87.50;;;;;;5030632;28;20030;-89
2023/07/11 02:02:57;;;;;;;8.45;4.53;;;29.50;87.50;;;;;;5002228;28;20494;-89
2023/07/11 02:05:23;;;;;;;7.05;4.80;;;29.50;87.50;;;;;;5016848;28;20066;-87
2023/07/11 02:07:49;;;;;;;5.75;4.57;;;29.40;87.40;;;;;;5029708;28;20044;-89
2023/07/11 02:10:15;;;;;;;5.57;4.60;;;29.40;87.40;;;;;;5001674;28;20037;-89
2023/07/11 02:12:44;;;;;;;8.57;4.80;;;29.40;87.50;;;;;;5032101;28;20066;-87
2023/07/11 02:15:11;;;;;;;9.65;4.95;;;29.40;87.40;;;;;;5020434;28;20050;-86
2023/07/11 02:17:37;;;;;;;7.55;4.13;;;29.40;87.20;;;;;;5018898;28;20501;-87
2023/07/11 02:20:03;;;;;;;6.72;4.55;;;29.40;87.20;;;;;;5027608;28;20025;-88
2023/07/11 02:22:29;;;;;;;5.88;4.35;;;29.30;87.20;;;;;;5017057;28;20030;-88
2023/07/11 02:24:55;;;;;;;6.22;4.70;;;29.30;87.40;;;;;;5029603;28;20018;-89
2023/07/11 02:27:20;;;;;;;5.07;4.10;;;29.40;87.70;;;;;;5015445;28;20036;-88
2023/07/11 02:29:46;;;;;;;5.07;4.57;;;29.30;87.70;;;;;;5015674;28;20022;-88
2023/07/11 02:32:12;;;;;;;5.45;4.22;;;29.30;87.60;;;;;;5015458;28;20377;-88
2023/07/11 02:34:55;;;;;;;6.05;4.45;;;29.30;87.60;;;;;;5025551;28;20073;-90
2023/07/11 02:37:21;;;;;;;5.70;4.30;;;29.30;87.80;;;;;;5000489;28;20064;-89
2023/07/11 02:39:47;;;;;;;4.95;4.03;;;29.20;88.00;;;;;;5014943;28;20045;-88
2023/07/11 02:42:13;;;;;;;5.72;4.10;;;29.20;88.10;;;;;;5015586;28;20034;-88
2023/07/11 02:44:39;;;;;;;4.78;4.28;;;29.20;88.00;;;;;;5027561;28;20025;-88
2023/07/11 02:47:05;;;;;;;5.55;4.03;;;29.20;88.10;;;;;;5028208;28;20109;-89
2023/07/11 02:49:30;;;;;;;5.50;4.15;;;29.20;88.20;;;;;;5017637;28;20025;-88
2023/07/11 02:51:56;;;;;;;5.35;4.30;;;29.20;88.40;;;;;;5020713;28;20033;-88
2023/07/11 02:54:22;;;;;;;5.10;4.28;;;29.20;88.60;;;;;;5014342;28;20022;-89
2023/07/11 02:56:47;;;;;;;5.40;4.25;;;29.20;88.90;;;;;;5014816;28;20509;-90
2023/07/11 02:59:13;;;;;;;6.63;4.38;;;29.10;89.60;;;;;;5020365;28;20056;-90
2023/07/11 03:01:39;;;;;;;5.68;4.13;;;29.20;89.40;;;;;;5026916;28;20469;-88
2023/07/11 03:04:04;;;;;;;5.30;4.00;;;29.20;89.50;;;;;;5002404;28;20037;-88
2023/07/11 03:06:30;;;;;;;8.48;4.35;;;29.20;89.70;;;;;;5018226;28;20025;-89
2023/07/11 03:08:56;;;;;;;5.25;4.07;;;29.20;89.90;;;;;;5007615;28;20022;-90
2023/07/11 03:11:22;;;;;;;7.72;5.05;;;29.10;89.90;;;;;;5019907;28;20056;-90
2023/07/11 03:13:47;;;;;;;5.18;4.57;;;29.10;90.00;;;;;;4998884;28;20033;-88
2023/07/11 03:16:14;;;;;;;5.50;4.20;;;29.10;90.10;;;;;;5018233;28;20033;-89
2023/07/11 03:18:39;;;;;;;5.53;4.57;;;29.10;90.20;;;;;;5030331;28;20101;-90
2023/07/11 03:21:05;;;;;;;6.85;4.82;;;29.10;90.20;;;;;;5014345;28;20098;-90
2023/07/11 03:23:31;;;;;;;5.25;4.32;;;29.00;90.20;;;;;;5014688;28;20036;-90
2023/07/11 03:25:57;;;;;;;5.18;4.57;;;29.00;90.20;;;;;;5014882;28;20477;-89
2023/07/11 03:28:23;;;;;;;5.95;4.68;;;29.00;90.30;;;;;;5014436;28;20040;-90
2023/07/11 03:30:50;;;;;;;9.43;4.80;;;29.00;90.40;;;;;;5023820;28;20033;-89
2023/07/11 03:33:16;;;;;;;6.13;4.20;;;29.00;90.40;;;;;;5019603;28;20030;-88
2023/07/11 03:35:48;;;;;;;5.75;4.47;;;29.00;90.60;;;;;;5028152;28;20077;-89
2023/07/11 03:38:24;;;;;;;6.15;4.75;;;29.00;90.70;;;;;;5031637;28;20036;-89
2023/07/11 03:40:49;;;;;;;5.28;4.47;;;29.00;90.80;;;;;;5002630;28;20033;-89
2023/07/11 03:43:15;;;;;;;6.88;5.00;;;28.90;90.80;;;;;;5022418;28;20033;-88
2023/07/11 03:45:48;;;;;;;8.05;4.57;;;28.90;90.90;;;;;;5022276;28;20038;-87
2023/07/11 03:48:15;;;;;;;6.10;4.82;;;28.90;91.00;;;;;;5024077;28;20513;-87
2023/07/11 03:50:41;;;;;;;6.28;4.45;;;28.90;91.00;;;;;;5028740;28;20086;-88
2023/07/11 03:53:07;;;;;;;7.15;5.25;;;28.80;91.10;;;;;;5018596;28;20101;-89
2023/07/11 03:55:33;;;;;;;8.95;5.88;;;28.80;91.00;;;;;;5013838;28;20445;-89
2023/07/11 03:57:59;;;;;;;6.47;5.57;;;28.80;91.00;;;;;;5024651;28;20033;-89
2023/07/11 04:00:25;;;;;;;6.32;5.22;;;28.70;91.00;;;;;;5029209;28;20030;-88
2023/07/11 04:02:50;;;;;;;7.25;5.25;;;28.70;91.00;;;;;;5019296;28;20541;-89
2023/07/11 04:05:21;;;;;;;6.60;5.35;;;28.70;91.00;;;;;;5016195;28;20018;-91
2023/07/11 04:07:50;;;;;;;7.93;5.53;;;28.70;91.10;;;;;;4999105;28;20097;-90
2023/07/11 04:10:16;;;;;;;7.05;5.30;;;28.70;91.20;;;;;;5003948;28;20026;-91
2023/07/11 04:12:42;;;;;;;5.70;4.80;;;28.70;91.20;;;;;;5033059;28;20132;-90
2023/07/11 04:15:08;;;;;;;5.70;5.10;;;28.70;91.30;;;;;;5017975;28;20065;-90
2023/07/11 04:17:34;;;;;;;8.30;5.30;;;28.60;91.30;;;;;;5013851;28;20548;-90
2023/07/11 04:20:00;;;;;;;7.80;5.28;;;28.60;91.40;;;;;;5013787;28;20025;-90
2023/07/11 04:22:25;;;;;;;6.32;5.10;;;28.60;91.50;;;;;;5025618;28;20473;-90
2023/07/11 04:24:51;;;;;;;10.93;4.93;;;28.70;91.60;;;;;;5015257;28;20033;-90
2023/07/11 04:27:16;;;;;;;7.53;5.78;;;28.70;91.60;;;;;;5033486;28;20362;-89
2023/07/11 04:29:42;;;;;;;8.35;5.82;;;28.70;91.70;;;;;;5025465;28;20496;-89
2023/07/11 04:32:08;;;;;;;8.57;5.38;;;28.70;91.70;;;;;;5021801;28;20034;-87
2023/07/11 04:34:34;;;;;;;7.20;5.20;;;28.70;91.70;;;;;;5031028;28;20036;-90
2023/07/11 04:36:59;;;;;;;8.10;5.35;;;28.70;91.70;;;;;;5023466;28;20049;-89
2023/07/11 04:39:25;;;;;;;6.65;5.15;;;28.70;91.80;;;;;;5014972;28;20389;-91
2023/07/11 04:41:51;;;;;;;7.05;5.43;;;28.70;91.80;;;;;;5013272;28;20026;-91
2023/07/11 04:44:16;;;;;;;7.55;5.70;;;28.70;91.90;;;;;;5013265;28;20390;-91
2023/07/11 04:46:42;;;;;;;7.07;5.75;;;28.70;91.90;;;;;;5012889;28;20100;-91
2023/07/11 04:49:08;;;;;;;6.50;5.65;;;28.70;91.90;;;;;;5013257;28;20037;-91
2023/07/11 04:51:36;;;;;;;6.80;5.45;;;28.60;91.90;;;;;;5012748;28;20046;-91
2023/07/11 04:54:02;;;;;;;7.40;5.63;;;28.70;92.10;;;;;;5013106;28;20544;-91
2023/07/11 04:56:28;;;;;;;8.18;5.75;;;28.70;92.40;;;;;;4994399;28;20042;-90
2023/07/11 04:58:54;;;;;;;7.40;6.05;;;28.60;92.20;;;;;;5012970;28;20072;-89
2023/07/11 05:01:19;;;;;;;8.18;6.07;;;28.60;92.30;;;;;;4995239;28;20494;-88
2023/07/11 05:03:47;;;;;;;6.43;5.60;;;28.60;92.40;;;;;;5016181;28;20108;-89
2023/07/11 05:06:13;;;;;;;7.40;6.03;;;28.60;92.50;;;;;;5016997;28;20371;-90
2023/07/11 05:08:39;;;;;;;7.50;5.95;;;28.60;92.60;;;;;;5017505;28;20033;-90
2023/07/11 05:11:12;;;;;;;9.80;6.72;;;28.60;92.70;;;;;;4998077;28;20125;-87
2023/07/11 05:13:39;;;;;;;8.43;6.07;;;28.70;92.80;;;;;;4999189;28;20169;-88
2023/07/11 05:16:08;;;;;;;7.57;6.75;;;28.70;92.80;;;;;;5035569;28;20040;-87
2023/07/11 05:18:40;;;;;;;7.85;6.75;;;28.70;92.90;;;;;;5000501;28;20030;-87
2023/07/11 05:21:14;;;;;;;9.05;5.90;;;28.70;92.90;;;;;;5015672;28;20033;-88
2023/07/11 05:23:40;;;;;;;7.00;5.60;;;28.70;93.00;;;;;;5024650;28;20029;-91
2023/07/11 05:26:07;;;;;;;7.07;5.72;;;28.80;93.10;;;;;;5017512;28;20067;-91
2023/07/11 05:28:33;;;;;;;7.03;5.95;;;28.80;93.20;;;;;;5031890;28;20044;-88
2023/07/11 05:31:04;;;;;;;8.43;5.75;;;28.80;93.10;;;;;;5016198;28;20053;-90
2023/07/11 05:33:32;;;;;;;7.80;6.30;;;28.80;93.00;;;;;;5016624;28;20394;-90
2023/07/11 05:36:37;;;;;;;9.35;6.15;;;28.80;93.10;;;;;;4997917;28;20033;-91
2023/07/11 05:39:06;;;;;;;7.35;6.50;;;28.90;93.20;;;;;;4921248;29;20023;-90
2023/07/11 05:41:34;;;;;;;6.40;5.70;;;28.90;93.00;;;;;;4934376;29;20044;-91
2023/07/11 05:44:00;;;;;;;8.35;6.53;;;28.90;92.90;;;;;;5012099;28;20288;-91
2023/07/11 05:46:26;;;;;;;10.00;6.40;;;28.90;93.00;;;;;;5019507;28;20021;-91
2023/07/11 05:48:54;;;;;;;8.50;6.63;;;28.90;93.00;;;;;;5017646;28;20053;-89
2023/07/11 05:51:20;;;;;;;7.22;6.03;;;28.90;93.00;;;;;;5012329;28;20084;-90
2023/07/11 05:53:48;;;;;;;7.47;6.18;;;29.00;93.00;;;;;;5017555;28;20029;-89
2023/07/11 05:56:14;;;;;;;8.05;5.50;;;29.00;93.00;;;;;;5012586;28;20014;-89
2023/07/11 05:58:43;;;;;;;6.93;5.85;;;29.00;93.00;;;;;;5029868;28;20032;-89
2023/07/11 06:01:13;;;;;;;6.47;5.80;;;29.00;93.20;;;;;;5035167;28;20021;-89
2023/07/11 06:03:45;;;;;;;5.50;4.82;;;29.00;93.20;;;;;;5026145;28;20044;-89
2023/07/11 06:06:13;;;;;;;8.73;5.63;;;29.10;93.30;;;;;;5015277;28;20073;-89
2023/07/11 06:08:38;;;;;;;8.48;5.95;;;29.10;93.20;;;;;;5015379;28;20030;-89
2023/07/11 06:11:05;;;;;;;7.05;5.60;;;29.10;93.40;;;;;;5015160;28;20356;-89
2023/07/11 06:13:33;;;;;;;7.40;5.40;;;29.10;93.30;;;;;;5014506;28;20438;-89
2023/07/11 06:16:02;;;;;;;8.57;5.50;;;29.00;93.40;;;;;;5014358;28;20482;-89
2023/07/11 06:18:29;;;;;;;6.57;5.83;;;29.10;93.40;;;;;;5014287;28;20494;-89
2023/07/11 06:20:55;;;;;;;6.90;5.22;;;29.20;93.50;;;;;;5014621;28;20277;-89
2023/07/11 06:23:21;;;;;;;7.68;4.95;;;29.30;93.50;;;;;;5014830;28;20383;-89
2023/07/11 06:25:49;;;;;;;6.97;5.00;;;29.30;93.50;;;;;;5015054;28;20033;-89
2023/07/11 06:28:15;;;;;;;5.70;4.97;;;29.30;93.50;;;;;;5013984;28;20026;-89
2023/07/11 06:30:42;;;;;;;8.18;5.43;;;29.30;93.50;;;;;;5014899;28;20033;-89
2023/07/11 06:33:11;;;;;;;6.78;5.22;;;29.30;93.50;;;;;;5014811;28;20101;-89
2023/07/11 06:35:39;;;;;;;9.02;5.45;;;29.40;93.50;;;;;;5013626;28;20030;-89
2023/07/11 06:38:05;;;;;;;7.85;5.28;;;29.40;93.30;;;;;;5014603;28;20022;-89
2023/07/11 06:40:31;;;;;;;5.95;5.00;;;29.40;93.30;;;;;;5014698;28;20025;-89
2023/07/11 06:42:56;;;;;;;8.82;5.20;;;29.40;93.30;;;;;;5014868;28;20496;-90
2023/07/11 06:45:22;;;;;;;6.03;4.40;;;29.40;93.10;;;;;;5014568;28;20020;-89
2023/07/11 06:47:48;;;;;;;6.95;4.75;;;29.40;93.00;;;;;;5014222;28;20029;-89
2023/07/11 06:50:14;;;;;;;5.93;4.85;;;29.50;93.00;;;;;;4996733;28;20451;-89
2023/07/11 06:52:40;;;;;;;5.18;4.68;;;29.50;92.90;;;;;;5014332;28;20025;-89
2023/07/11 06:55:06;;;;;;;4.10;3.70;;;29.60;92.90;;;;;;5014386;28;20022;-88
2023/07/11 06:57:32;;;;;;;5.97;4.40;;;29.60;92.60;;;;;;5014193;28;20072;-89
2023/07/11 06:59:58;;;;;;;6.63;4.20;;;29.70;92.40;;;;;;5014154;28;20525;-89
2023/07/11 07:02:23;;;;;;;6.38;4.38;;;29.80;92.20;;;;;;4996253;28;20133;-89
2023/07/11 07:04:49;;;;;;;6.00;4.38;;;29.80;91.80;;;;;;5014310;28;20018;-89
2023/07/11 07:07:15;;;;;;;5.05;4.03;;;29.90;91.80;;;;;;5014208;28;20053;-89
2023/07/11 07:09:40;;;;;;;5.68;4.38;;;29.90;91.60;;;;;;4996469;28;20432;-88
2023/07/11 07:12:07;;;;;;;7.88;4.55;;;29.90;91.50;;;;;;5013413;28;20062;-89
2023/07/11 07:14:32;;;;;;;7.20;4.60;;;30.00;91.20;;;;;;5013073;28;20541;-90
2023/07/11 07:16:58;;;;;;;5.13;3.45;;;30.10;91.10;;;;;;5012998;28;20106;-89
2023/07/11 07:19:24;;;;;;;7.93;4.57;;;30.10;91.00;;;;;;5012883;28;20486;-89
2023/07/11 07:21:49;;;;;;;6.32;4.57;;;30.20;90.90;;;;;;5013911;28;20088;-89
2023/07/11 07:24:15;;;;;;;5.78;3.92;;;30.20;90.90;;;;;;5013978;28;20026;-89
2023/07/11 07:26:41;;;;;;;5.30;4.30;;;30.20;90.80;;;;;;5013878;28;20027;-89
2023/07/11 07:29:07;;;;;;;5.63;4.45;;;30.30;90.80;;;;;;5003768;28;20026;-89
2023/07/11 07:31:33;;;;;;;5.70;4.45;;;30.40;90.80;;;;;;4993878;28;20026;-89
2023/07/11 07:33:59;;;;;;;4.57;4.03;;;30.40;90.80;;;;;;4976850;28;20076;-89
2023/07/11 07:36:24;;;;;;;6.32;4.57;;;30.40;90.20;;;;;;4994420;28;20030;-89
2023/07/11 07:38:50;;;;;;;5.45;4.30;;;30.50;90.30;;;;;;4994252;28;20427;-89
2023/07/11 07:41:16;;;;;;;9.57;6.30;;;30.50;90.30;;;;;;5005859;28;20111;-90
2023/07/11 07:43:44;;;;;;;5.07;3.95;;;30.60;90.20;;;;;;5013918;28;20033;-89
2023/07/11 07:46:15;;;;;;;5.55;4.10;;;30.60;90.20;;;;;;5013699;28;20028;-89
2023/07/11 07:48:43;;;;;;;5.70;4.13;;;30.70;90.20;;;;;;5012747;28;20029;-89
2023/07/11 07:51:12;;;;;;;5.82;4.60;;;30.70;90.10;;;;;;5013012;28;20026;-89
2023/07/11 07:53:38;;;;;;;6.95;4.57;;;30.80;89.70;;;;;;5013264;28;20494;-89
2023/07/11 07:56:30;;;;;;;6.97;5.50;;;30.90;89.80;;;;;;4975981;28;20030;-89
2023/07/11 07:58:56;;;;;;;5.60;5.00;;;30.90;90.10;;;;;;4991987;28;20045;-89
2023/07/11 08:01:22;;;;;;;5.53;4.80;;;31.00;90.10;;;;;;4995543;28;20359;-89
2023/07/11 08:03:48;;;;;;;5.47;4.50;;;31.00;90.00;;;;;;5013023;28;20029;-89
2023/07/11 08:06:16;;;;;;;6.25;4.22;;;31.00;90.00;;;;;;5013021;28;20100;-90
2023/07/11 08:08:42;;;;;;;6.53;3.70;;;31.10;89.60;;;;;;5012753;28;20040;-89
2023/07/11 08:11:08;;;;;;;5.68;3.80;;;31.10;89.60;;;;;;5011940;28;20133;-89
2023/07/11 08:13:34;;;;;;;3.97;3.38;;;31.20;89.40;;;;;;5012219;28;20577;-89
2023/07/11 08:16:01;;;;;;;5.93;3.88;;;31.30;89.20;;;;;;5012642;28;20506;-90
2023/07/11 08:18:27;;;;;;;4.00;3.22;;;31.30;88.60;;;;;;4995035;28;20401;-89
2023/07/11 08:20:53;;;;;;;5.60;3.30;;;31.40;88.50;;;;;;5012791;28;20024;-90
2023/07/11 08:23:19;;;;;;;5.10;3.97;;;31.40;88.50;;;;;;5012781;28;20028;-90
2023/07/11 08:25:44;;;;;;;6.05;3.45;;;31.50;88.10;;;;;;4994590;28;20153;-90
2023/07/11 08:28:10;;;;;;;4.47;3.50;;;31.50;87.40;;;;;;5012841;28;20030;-89
2023/07/11 08:30:39;;;;;;;3.75;3.40;;;31.50;87.20;;;;;;5012717;28;20046;-89
2023/07/11 08:33:06;;;;;;;4.55;3.58;;;31.60;86.90;;;;;;5012742;28;20105;-88
2023/07/11 08:35:31;;;;;;;5.57;3.65;;;31.60;85.10;;;;;;5012521;28;20022;-89
2023/07/11 08:37:57;;;;;;;4.88;3.33;;;31.70;83.90;;;;;;5016449;28;20393;-90
2023/07/11 08:40:27;;;;;;;4.25;3.85;;;31.70;83.30;;;;;;5017165;28;20036;-89
2023/07/11 08:42:52;;;;;;;;;;;31.70;82.70;;;;;;5019725;28;20374;-89
2023/07/11 08:45:26;;;;;;;9.15;3.85;;;31.70;81.40;;;;;;5018921;28;19912;-90
2023/07/11 08:48:09;;;;;;;5.97;3.70;;;31.80;82.20;;;;;;5019225;28;20029;-90
2023/07/11 08:50:54;;;;;;;6.75;3.60;;;31.80;80.10;;;;;;5000732;28;20038;-90
2023/07/11 08:53:29;;;;;;;4.88;3.45;;;31.80;81.10;;;;;;5000849;28;20030;-90
2023/07/11 08:55:59;;;;;;;7.70;4.13;;;31.80;81.70;;;;;;4999478;28;20026;-90
2023/07/11 08:58:29;;;;;;;;;;;31.90;81.70;;;;;;5000089;28;20033;-89
2023/07/11 09:00:56;;;;;;;5.00;3.40;;;31.90;81.30;;;;;;4999522;28;19973;-90
2023/07/11 09:03:30;;;;;;;5.63;3.65;;;32.00;80.60;;;;;;4999370;28;20030;-90
2023/07/11 09:06:03;;;;;;;9.73;4.15;;;32.10;81.00;;;;;;4995545;28;20092;-89
2023/07/11 09:08:30;;;;;;;5.82;3.40;;;32.10;80.40;;;;;;5019068;28;20029;-88
2023/07/11 09:11:20;;;;;;;5.95;3.53;;;32.10;79.50;;;;;;5001485;28;20032;-89
2023/07/11 09:13:45;;;;;;;;;;;32.20;79.80;;;;;;5019474;28;20088;-90
2023/07/11 09:16:20;;;;;;;5.85;3.67;;;32.30;79.20;;;;;;5018594;28;19905;-91
2023/07/11 09:19:01;;;;;;;4.60;3.60;;;32.30;78.70;;;;;;5018351;28;20021;-90
2023/07/11 09:21:51;;;;;;;5.55;3.50;;;32.40;78.90;;;;;;5018739;28;20030;-90
2023/07/11 09:24:46;;;;;;;11.48;4.18;;;32.40;79.00;;;;;;5018408;28;20117;-90
2023/07/11 09:27:23;;;;;;;7.00;3.53;;;32.60;79.40;;;;;;5001124;28;20165;-90
2023/07/11 09:29:50;;;;;;;4.70;2.58;;;32.60;79.90;;;;;;5018794;28;20025;-91
2023/07/11 09:32:17;;;;;;;6.30;3.63;;;32.70;80.80;;;;;;5016662;28;20041;-90
2023/07/11 09:34:46;;;;;;;4.57;2.85;;;32.70;80.40;;;;;;5017925;28;20030;-90
2023/07/11 09:37:42;;;;;;;6.55;3.05;;;32.80;80.50;;;;;;5018337;28;20457;-90
2023/07/11 09:40:14;;;;;;;4.68;3.33;;;32.90;80.40;;;;;;5019046;28;20026;-90
2023/07/11 09:42:55;;;;;;;6.05;3.85;;;32.90;79.80;;;;;;5018776;28;20386;-81
2023/07/11 09:45:27;;;;;;;4.75;3.17;;;33.00;80.20;;;;;;5017123;28;20026;-81
2023/07/11 09:48:04;;;;;;;5.07;3.30;;;33.10;79.90;;;;;;5018335;28;20030;-82
2023/07/11 09:50:40;;;;;;;5.28;3.25;;;33.10;79.30;;;;;;5014486;28;20482;-81
2023/07/11 09:53:13;;;;;;;4.85;3.33;;;33.10;78.90;;;;;;5015475;28;20037;-81
2023/07/11 09:55:39;;;;;;;7.35;3.17;;;33.10;78.80;;;;;;5015900;28;20017;-89
2023/07/11 09:58:05;;;;;;;4.00;3.05;;;33.10;80.00;;;;;;5016917;28;20026;-90
2023/07/11 10:00:31;;;;;;;4.05;3.08;;;33.20;79.60;;;;;;5009936;28;20033;-90
2023/07/11 10:02:59;;;;;;;4.18;2.92;;;33.20;80.10;;;;;;4995525;28;20109;-90
2023/07/11 10:05:25;;;;;;;4.38;3.47;;;33.30;79.70;;;;;;4978048;28;20033;-90
2023/07/11 10:08:03;;;;;;;3.92;3.05;;;33.30;79.90;;;;;;5017030;28;20138;-90
2023/07/11 10:10:31;;;;;;;5.00;3.28;;;33.40;79.20;;;;;;5014838;28;20410;-90
2023/07/11 10:13:10;;;;;;;6.38;3.10;;;33.40;79.70;;;;;;4997308;28;20053;-89
2023/07/11 10:15:36;;;;;;;;;;;33.50;79.60;;;;;;5015296;28;20017;-90
2023/07/11 10:18:02;;;;;;;3.42;2.92;;;33.60;78.60;;;;;;5014426;28;20361;-89
2023/07/11 10:20:28;;;;;;;5.47;3.67;;;33.60;77.80;;;;;;5014993;28;20058;-89
2023/07/11 10:23:03;;;;;;;5.88;3.67;;;33.60;77.40;;;;;;5015043;28;20030;-89
2023/07/11 10:25:31;;;;;;;5.63;3.67;;;33.60;76.60;;;;;;5014730;28;20030;-81
2023/07/11 10:28:23;;;;;;;4.85;3.28;;;33.60;76.20;;;;;;5014778;28;20512;-90
2023/07/11 10:30:50;;;;;;;4.93;3.13;;;33.70;75.40;;;;;;5011399;28;20108;-90
2023/07/11 10:33:25;;;;;;;5.63;3.72;;;33.70;75.10;;;;;;5014574;28;20026;-89
2023/07/11 10:36:03;;;;;;;4.95;4.00;;;33.70;74.90;;;;;;5014528;28;20026;-90
2023/07/11 10:38:45;;;;;;;3.70;3.08;;;33.70;74.60;;;;;;5014961;28;20018;-90
2023/07/11 10:41:22;;;;;;;5.65;3.25;;;33.80;74.60;;;;;;5017909;28;20037;-89
2023/07/11 10:43:51;;;;;;;5.03;3.17;;;33.90;74.80;;;;;;5012261;28;20029;-90
2023/07/11 10:46:42;;;;;;;4.85;3.72;;;34.00;74.40;;;;;;4996939;28;20486;-89
2023/07/11 10:49:39;;;;;;;5.93;2.85;;;34.10;73.50;;;;;;5014620;28;20030;-90
2023/07/11 10:52:08;;;;;;;4.13;3.00;;;34.10;72.90;;;;;;4998926;28;20042;-90
2023/07/11 10:54:53;;;;;;;7.10;3.27;;;34.20;73.40;;;;;;5013999;28;20022;-89
2023/07/11 10:57:46;;;;;;;6.93;3.60;;;34.30;72.70;;;;;;5009760;28;20026;-90
2023/07/11 11:00:25;;;;;;;4.90;3.22;;;34.50;73.20;;;;;;5014232;28;20022;-89
2023/07/11 11:03:06;;;;;;;4.20;3.40;;;34.60;72.00;;;;;;5014294;28;20049;-89
2023/07/11 11:06:00;;;;;;;8.15;3.22;;;34.70;71.80;;;;;;5014047;28;20540;-90
2023/07/11 11:08:40;;;;;;;14.00;3.58;;;34.80;70.70;;;;;;5013019;28;20033;-90
2023/07/11 11:11:24;;;;;;;7.28;4.38;;;34.80;69.70;;;;;;5013926;28;20489;-89
2023/07/11 11:14:11;;;;;;;4.07;3.50;;;35.00;69.50;;;;;;5014043;28;20037;-89
2023/07/11 11:17:04;;;;;;;4.63;3.50;;;35.10;69.00;;;;;;5014026;28;20054;-89
2023/07/11 11:20:05;;;;;;;4.18;3.20;;;35.10;67.40;;;;;;5000684;28;20042;-81
2023/07/11 11:23:01;;;;;;;5.38;3.20;;;35.10;66.60;;;;;;5012044;28;20348;-81
2023/07/11 11:25:36;;;;;;;6.38;3.20;;;35.10;66.40;;;;;;5013986;28;20494;-81
2023/07/11 11:28:30;;;;;;;3.42;3.00;;;35.30;65.60;;;;;;5014005;28;20037;-81
2023/07/11 11:30:58;;;;;;;7.07;3.08;;;35.50;66.20;;;;;;5013593;28;20026;-81
2023/07/11 11:33:48;;;;;;;3.47;3.10;;;35.70;65.40;;;;;;5013783;28;20053;-81
2023/07/11 11:36:31;;;;;;;4.13;3.38;;;36.00;64.10;;;;;;5012950;28;20026;-81
2023/07/11 11:39:08;;;;;;;3.90;3.10;;;36.30;61.90;;;;;;5013482;28;20064;-81
2023/07/11 11:41:41;;;;;;;6.03;3.10;;;36.60;62.10;;;;;;5013639;28;20026;-81
2023/07/11 11:44:23;;;;;;;8.13;2.90;;;37.00;62.20;;;;;;5013681;28;20041;-81
2023/07/11 11:46:50;;;;;;;3.58;3.00;;;37.50;61.10;;;;;;5013536;28;20022;-82
2023/07/11 11:49:18;;;;;;;3.80;3.38;;;37.70;61.00;;;;;;4994713;28;20053;-81
2023/07/11 11:51:45;;;;;;;3.85;2.55;;;38.00;60.80;;;;;;4993610;28;20022;-81
2023/07/11 11:54:20;;;;;;;4.55;3.28;;;38.30;59.30;;;;;;4993682;28;20086;-81
2023/07/11 11:56:50;;;;;;;3.22;2.92;;;38.40;58.70;;;;;;4976099;28;20382;-81
2023/07/11 11:59:22;;;;;;;4.45;2.78;;;38.60;58.00;;;;;;4997480;28;20022;-81
2023/07/11 12:01:53;;;;;;;3.85;2.72;;;38.70;57.70;;;;;;5013264;28;20026;-81
2023/07/11 12:04:38;;;;;;;4.32;3.13;;;38.90;56.50;;;;;;5013217;28;20064;-81
2023/07/11 12:07:26;;;;;;;5.30;3.25;;;39.20;56.20;;;;;;5012865;28;20037;-81
2023/07/11 12:09:51;;;;;;;4.53;3.42;;;39.30;56.30;;;;;;5013054;28;20014;-81
2023/07/11 12:12:25;;;;;;;6.97;3.38;;;39.50;54.70;;;;;;5011106;28;20050;-81
2023/07/11 12:14:57;;;;;;;3.42;3.13;;;39.50;54.70;;;;;;5012759;28;20369;-81
2023/07/11 12:17:31;;;;;;;4.60;3.15;;;39.70;54.60;;;;;;4995714;28;20121;-81
2023/07/11 12:20:00;;;;;;;4.43;3.35;;;39.80;54.30;;;;;;5013148;28;20545;-81
2023/07/11 12:22:46;;;;;;;3.78;3.38;;;40.00;53.80;;;;;;5013080;28;20395;-81
2023/07/11 12:25:12;;;;;;;6.25;4.15;;;40.00;53.90;;;;;;4962500;28;20100;-81
2023/07/11 12:27:38;;;;;;;5.38;3.85;;;40.00;53.70;;;;;;4995097;28;20482;-81
2023/07/11 12:30:26;;;;;;;4.88;3.50;;;40.00;53.30;;;;;;4995411;28;20475;-81
2023/07/11 12:32:54;;;;;;;4.23;3.40;;;40.10;53.10;;;;;;5012738;28;20030;-81
2023/07/11 12:35:34;;;;;;;7.65;3.55;;;40.10;53.70;;;;;;5013023;28;20422;-81
2023/07/11 12:38:02;;;;;;;5.53;2.80;;;40.10;52.80;;;;;;5003087;28;20022;-81
2023/07/11 12:40:56;;;;;;;6.32;3.60;;;40.30;52.80;;;;;;4993032;28;20041;-82
2023/07/11 12:43:27;;;;;;;4.07;3.30;;;40.30;51.10;;;;;;4993349;28;20492;-81
2023/07/11 12:45:54;;;;;;;6.03;3.97;;;40.30;51.40;;;;;;4992654;28;20050;-81
2023/07/11 12:48:32;;;;;;;5.63;4.55;;;40.30;51.50;;;;;;5003554;28;20414;-81
2023/07/11 12:51:03;;;;;;;4.82;3.28;;;40.30;51.80;;;;;;5012210;28;20076;-81
2023/07/11 12:53:34;;;;;;;4.10;3.50;;;40.40;51.70;;;;;;5012799;28;20057;-82
2023/07/11 12:56:00;;;;;;;6.35;3.38;;;40.40;51.50;;;;;;5012349;28;20097;-81
2023/07/11 12:58:28;;;;;;;5.07;3.50;;;40.40;51.30;;;;;;5012395;28;20446;-81
2023/07/11 13:00:56;;;;;;;4.22;3.33;;;40.40;52.10;;;;;;5012471;28;20061;-81